Time;durP1;ratioP1;P1;durP2;ratioP2;P2;SDS_P1;SDS_P2;PMS_P1;PMS_P2;Temp;Humidity;BMP_temperature;BMP_pressure;BME280_temperature;BME280_humidity;BME280_pressure;Samples;Min_cycle;Max_cycle;Signal;HPM_P1;HPM_P2
2021/09/23 00:00:40;;;;;;;8.2;6.7;;;;;;;6.55;72.35059;96017.36;;;;
2021/09/23 00:01:42;;;;;;;8.2;6.7;;;;;;;6.55;72.35059;96017.36;;;;
2021/09/23 00:03:09;;;;;;;8.2;6.7;;;;;;;6.55;72.35059;96017.36;;;;
2021/09/23 00:04:21;;;;;;;8.2;6.7;;;;;;;6.55;72.35059;96017.36;;;;
2021/09/23 00:05:21;;;;;;;8.2;6.7;;;;;;;6.55;72.35059;96017.36;;;;
2021/09/23 00:06:24;;;;;;;8.2;6.7;;;;;;;6.55;72.35059;96017.36;;;;
2021/09/23 00:07:24;;;;;;;10.4;6.55;;;;;;;6.5;72.36523;96009.88;;;;
2021/09/23 00:08:25;;;;;;;10.4;6.55;;;;;;;6.5;72.36523;96009.88;;;;
2021/09/23 00:09:25;;;;;;;10.4;6.55;;;;;;;6.5;72.36523;96009.88;;;;
2021/09/23 00:10:26;;;;;;;10.4;6.55;;;;;;;6.5;72.36523;96009.88;;;;
2021/09/23 00:11:28;;;;;;;10.4;6.55;;;;;;;6.5;72.36523;96009.88;;;;
2021/09/23 00:12:28;;;;;;;10.4;6.55;;;;;;;6.5;72.36523;96009.88;;;;
2021/09/23 00:13:29;;;;;;;10.4;6.55;;;;;;;6.5;72.36523;96009.88;;;;
2021/09/23 00:14:30;;;;;;;10.4;6.55;;;;;;;6.5;72.36523;96009.88;;;;
2021/09/23 00:15:30;;;;;;;10.4;6.55;;;;;;;6.5;72.36523;96009.88;;;;
2021/09/23 00:16:31;;;;;;;10.4;6.55;;;;;;;6.5;72.36523;96009.88;;;;
2021/09/23 00:17:32;;;;;;;10.2;7.25;;;;;;;6.41;72.47656;95989.99;;;;
2021/09/23 00:18:32;;;;;;;10.2;7.25;;;;;;;6.41;72.47656;95989.99;;;;
2021/09/23 00:19:33;;;;;;;10.2;7.25;;;;;;;6.41;72.47656;95989.99;;;;
2021/09/23 00:20:33;;;;;;;10.2;7.25;;;;;;;6.41;72.47656;95989.99;;;;
2021/09/23 00:21:37;;;;;;;10.2;7.25;;;;;;;6.41;72.47656;95989.99;;;;
2021/09/23 00:22:38;;;;;;;10.2;7.25;;;;;;;6.41;72.47656;95989.99;;;;
2021/09/23 00:23:38;;;;;;;10.2;7.25;;;;;;;6.41;72.47656;95989.99;;;;
2021/09/23 00:24:39;;;;;;;10.2;7.25;;;;;;;6.41;72.47656;95989.99;;;;
2021/09/23 00:25:39;;;;;;;10.2;7.25;;;;;;;6.41;72.47656;95989.99;;;;
2021/09/23 00:26:40;;;;;;;10.2;7.25;;;;;;;6.41;72.47656;95989.99;;;;
2021/09/23 00:27:41;;;;;;;10.2;7.25;;;;;;;6.41;72.47656;95989.99;;;;
2021/09/23 00:28:43;;;;;;;10;7.15;;;;;;;6.34;72.61426;95982.4;;;;
2021/09/23 00:29:43;;;;;;;10;7.15;;;;;;;6.34;72.61426;95982.4;;;;
2021/09/23 00:30:44;;;;;;;10;7.15;;;;;;;6.34;72.61426;95982.4;;;;
2021/09/23 00:31:44;;;;;;;10;7.15;;;;;;;6.34;72.61426;95982.4;;;;
2021/09/23 00:32:45;;;;;;;10;7.15;;;;;;;6.34;72.61426;95982.4;;;;
2021/09/23 00:33:45;;;;;;;10;7.15;;;;;;;6.34;72.61426;95982.4;;;;
2021/09/23 00:34:46;;;;;;;10;7.15;;;;;;;6.34;72.61426;95982.4;;;;
2021/09/23 00:35:46;;;;;;;10;7.15;;;;;;;6.34;72.61426;95982.4;;;;
2021/09/23 00:36:47;;;;;;;10;7.15;;;;;;;6.34;72.61426;95982.4;;;;
2021/09/23 00:37:47;;;;;;;10;7.15;;;;;;;6.34;72.61426;95982.4;;;;
2021/09/23 00:38:48;;;;;;;9.199999;6.849999;;;;;;;6.26;72.78027;95967.77;;;;
2021/09/23 00:39:49;;;;;;;9.199999;6.849999;;;;;;;6.26;72.78027;95967.77;;;;
2021/09/23 00:40:50;;;;;;;9.199999;6.849999;;;;;;;6.26;72.78027;95967.77;;;;
2021/09/23 00:41:50;;;;;;;9.199999;6.849999;;;;;;;6.26;72.78027;95967.77;;;;
2021/09/23 00:42:52;;;;;;;9.199999;6.849999;;;;;;;6.26;72.78027;95967.77;;;;
2021/09/23 00:43:52;;;;;;;9.199999;6.849999;;;;;;;6.26;72.78027;95967.77;;;;
2021/09/23 00:44:53;;;;;;;9.199999;6.849999;;;;;;;6.26;72.78027;95967.77;;;;
2021/09/23 00:45:54;;;;;;;9.199999;6.849999;;;;;;;6.26;72.78027;95967.77;;;;
2021/09/23 00:46:55;;;;;;;9.199999;6.849999;;;;;;;6.26;72.78027;95967.77;;;;
2021/09/23 00:47:55;;;;;;;9.199999;6.849999;;;;;;;6.26;72.78027;95967.77;;;;
2021/09/23 00:48:56;;;;;;;9.199999;6.849999;;;;;;;6.26;72.78027;95967.77;;;;
2021/09/23 00:49:56;;;;;;;10.8;6.849999;;;;;;;6.12;73.02051;95957.95;;;;
2021/09/23 00:50:58;;;;;;;10.8;6.849999;;;;;;;6.12;73.02051;95957.95;;;;
2021/09/23 00:51:58;;;;;;;10.8;6.849999;;;;;;;6.12;73.02051;95957.95;;;;
2021/09/23 00:52:59;;;;;;;10.8;6.849999;;;;;;;6.12;73.02051;95957.95;;;;
2021/09/23 00:54:00;;;;;;;10.8;6.849999;;;;;;;6.12;73.02051;95957.95;;;;
2021/09/23 00:55:01;;;;;;;10.8;6.849999;;;;;;;6.12;73.02051;95957.95;;;;
2021/09/23 00:56:03;;;;;;;10.8;6.849999;;;;;;;6.12;73.02051;95957.95;;;;
2021/09/23 00:57:04;;;;;;;10.8;6.849999;;;;;;;6.12;73.02051;95957.95;;;;
2021/09/23 00:58:05;;;;;;;10.8;6.849999;;;;;;;6.12;73.02051;95957.95;;;;
2021/09/23 00:59:05;;;;;;;10.8;6.849999;;;;;;;6.12;73.02051;95957.95;;;;
2021/09/23 01:00:06;;;;;;;7.8;6.100001;;;;;;;6.1;73.21875;95962.67;;;;
2021/09/23 01:01:09;;;;;;;7.8;6.100001;;;;;;;6.1;73.21875;95962.67;;;;
2021/09/23 01:02:10;;;;;;;7.8;6.100001;;;;;;;6.1;73.21875;95962.67;;;;
2021/09/23 01:03:11;;;;;;;7.8;6.100001;;;;;;;6.1;73.21875;95962.67;;;;
2021/09/23 01:04:12;;;;;;;7.8;6.100001;;;;;;;6.1;73.21875;95962.67;;;;
2021/09/23 01:05:13;;;;;;;7.8;6.100001;;;;;;;6.1;73.21875;95962.67;;;;
2021/09/23 01:06:14;;;;;;;7.8;6.100001;;;;;;;6.1;73.21875;95962.67;;;;
2021/09/23 01:07:14;;;;;;;7.8;6.100001;;;;;;;6.1;73.21875;95962.67;;;;
2021/09/23 01:08:18;;;;;;;7.8;6.100001;;;;;;;6.1;73.21875;95962.67;;;;
2021/09/23 01:09:18;;;;;;;7.8;6.100001;;;;;;;6.1;73.21875;95962.67;;;;
2021/09/23 01:10:19;;;;;;;7.8;6.100001;;;;;;;6.1;73.21875;95962.67;;;;
2021/09/23 01:11:20;;;;;;;7.8;6.100001;;;;;;;6.1;73.21875;95962.67;;;;
2021/09/23 01:12:22;;;;;;;7.8;6.100001;;;;;;;6.1;73.21875;95962.67;;;;
2021/09/23 01:13:24;;;;;;;7.8;6.100001;;;;;;;6.1;73.21875;95962.67;;;;
2021/09/23 01:14:25;;;;;;;7.8;6.100001;;;;;;;6.1;73.21875;95962.67;;;;
2021/09/23 01:15:25;;;;;;;7.8;6.100001;;;;;;;6.1;73.21875;95962.67;;;;
2021/09/23 01:16:26;;;;;;;7.8;6.100001;;;;;;;6.1;73.21875;95962.67;;;;
2021/09/23 01:17:26;;;;;;;7.8;6.100001;;;;;;;6.1;73.21875;95962.67;;;;
2021/09/23 01:18:27;;;;;;;7.8;6.100001;;;;;;;6.1;73.21875;95962.67;;;;
2021/09/23 01:19:27;;;;;;;7.8;6.100001;;;;;;;6.1;73.21875;95962.67;;;;
2021/09/23 01:20:28;;;;;;;7.8;6.100001;;;;;;;6.1;73.21875;95962.67;;;;
2021/09/23 01:21:28;;;;;;;9.950001;6.5;;;;;;;5.97;73.36621;95955.86;;;;
2021/09/23 01:22:29;;;;;;;9.950001;6.5;;;;;;;5.97;73.36621;95955.86;;;;
2021/09/23 01:23:30;;;;;;;9.950001;6.5;;;;;;;5.97;73.36621;95955.86;;;;
2021/09/23 01:24:35;;;;;;;9.950001;6.5;;;;;;;5.97;73.36621;95955.86;;;;
2021/09/23 01:25:36;;;;;;;9.950001;6.5;;;;;;;5.97;73.36621;95955.86;;;;
2021/09/23 01:26:37;;;;;;;9.950001;6.5;;;;;;;5.97;73.36621;95955.86;;;;
2021/09/23 01:27:37;;;;;;;9.950001;6.5;;;;;;;5.97;73.36621;95955.86;;;;
2021/09/23 01:28:38;;;;;;;9.950001;6.5;;;;;;;5.97;73.36621;95955.86;;;;
2021/09/23 01:29:39;;;;;;;9.950001;6.5;;;;;;;5.97;73.36621;95955.86;;;;
2021/09/23 01:30:41;;;;;;;9.950001;6.5;;;;;;;5.97;73.36621;95955.86;;;;
2021/09/23 01:31:41;;;;;;;9.950001;6.5;;;;;;;5.97;73.36621;95955.86;;;;
2021/09/23 01:32:44;;;;;;;8.849999;6.299999;;;;;;;5.87;73.52832;95953.99;;;;
2021/09/23 01:33:45;;;;;;;8.849999;6.299999;;;;;;;5.87;73.52832;95953.99;;;;
2021/09/23 01:34:45;;;;;;;8.849999;6.299999;;;;;;;5.87;73.52832;95953.99;;;;
2021/09/23 01:35:46;;;;;;;8.849999;6.299999;;;;;;;5.87;73.52832;95953.99;;;;
2021/09/23 01:36:46;;;;;;;8.849999;6.299999;;;;;;;5.87;73.52832;95953.99;;;;
2021/09/23 01:37:47;;;;;;;8.849999;6.299999;;;;;;;5.87;73.52832;95953.99;;;;
2021/09/23 01:38:47;;;;;;;8.849999;6.299999;;;;;;;5.87;73.52832;95953.99;;;;
2021/09/23 01:39:50;;;;;;;8.849999;6.299999;;;;;;;5.87;73.52832;95953.99;;;;
2021/09/23 01:40:51;;;;;;;8.849999;6.299999;;;;;;;5.87;73.52832;95953.99;;;;
2021/09/23 01:41:51;;;;;;;8.849999;6.299999;;;;;;;5.87;73.52832;95953.99;;;;
2021/09/23 01:42:53;;;;;;;9.049999;6.15;;;;;;;5.7;73.75488;95950.69;;;;
2021/09/23 01:43:54;;;;;;;9.049999;6.15;;;;;;;5.7;73.75488;95950.69;;;;
2021/09/23 01:44:54;;;;;;;9.049999;6.15;;;;;;;5.7;73.75488;95950.69;;;;
2021/09/23 01:45:55;;;;;;;9.049999;6.15;;;;;;;5.7;73.75488;95950.69;;;;
2021/09/23 01:46:55;;;;;;;9.049999;6.15;;;;;;;5.7;73.75488;95950.69;;;;
2021/09/23 01:47:56;;;;;;;9.049999;6.15;;;;;;;5.7;73.75488;95950.69;;;;
2021/09/23 01:48:56;;;;;;;9.049999;6.15;;;;;;;5.7;73.75488;95950.69;;;;
2021/09/23 01:49:57;;;;;;;9.049999;6.15;;;;;;;5.7;73.75488;95950.69;;;;
2021/09/23 01:50:58;;;;;;;9.049999;6.15;;;;;;;5.7;73.75488;95950.69;;;;
2021/09/23 01:51:59;;;;;;;9.049999;6.15;;;;;;;5.7;73.75488;95950.69;;;;
2021/09/23 01:52:59;;;;;;;9.049999;6.15;;;;;;;5.7;73.75488;95950.69;;;;
2021/09/23 01:54:00;;;;;;;11.15;6.95;;;;;;;5.6;74.03223;95943.98;;;;
2021/09/23 01:55:00;;;;;;;11.15;6.95;;;;;;;5.6;74.03223;95943.98;;;;
2021/09/23 01:56:01;;;;;;;11.15;6.95;;;;;;;5.6;74.03223;95943.98;;;;
2021/09/23 01:57:02;;;;;;;11.15;6.95;;;;;;;5.6;74.03223;95943.98;;;;
2021/09/23 01:58:03;;;;;;;11.15;6.95;;;;;;;5.6;74.03223;95943.98;;;;
2021/09/23 01:59:03;;;;;;;11.15;6.95;;;;;;;5.6;74.03223;95943.98;;;;
2021/09/23 02:00:05;;;;;;;11.15;6.95;;;;;;;5.6;74.03223;95943.98;;;;
2021/09/23 02:01:07;;;;;;;11.15;6.95;;;;;;;5.6;74.03223;95943.98;;;;
2021/09/23 02:02:07;;;;;;;11.15;6.95;;;;;;;5.6;74.03223;95943.98;;;;
2021/09/23 02:03:08;;;;;;;11.15;6.95;;;;;;;5.6;74.03223;95943.98;;;;
2021/09/23 02:04:08;;;;;;;11.45;7.050001;;;;;;;5.56;74.24805;95940.96;;;;
2021/09/23 02:05:08;;;;;;;11.45;7.050001;;;;;;;5.56;74.24805;95940.96;;;;
2021/09/23 02:06:09;;;;;;;11.45;7.050001;;;;;;;5.56;74.24805;95940.96;;;;
2021/09/23 02:07:10;;;;;;;11.45;7.050001;;;;;;;5.56;74.24805;95940.96;;;;
2021/09/23 02:08:11;;;;;;;11.45;7.050001;;;;;;;5.56;74.24805;95940.96;;;;
2021/09/23 02:09:11;;;;;;;11.45;7.050001;;;;;;;5.56;74.24805;95940.96;;;;
2021/09/23 02:10:12;;;;;;;11.45;7.050001;;;;;;;5.56;74.24805;95940.96;;;;
2021/09/23 02:11:14;;;;;;;11.45;7.050001;;;;;;;5.56;74.24805;95940.96;;;;
2021/09/23 02:12:16;;;;;;;11.45;7.050001;;;;;;;5.56;74.24805;95940.96;;;;
2021/09/23 02:13:17;;;;;;;11.45;7.050001;;;;;;;5.56;74.24805;95940.96;;;;
2021/09/23 02:14:17;;;;;;;11.45;7.050001;;;;;;;5.56;74.24805;95940.96;;;;
2021/09/23 02:15:17;;;;;;;11.45;7.050001;;;;;;;5.56;74.24805;95940.96;;;;
2021/09/23 02:16:18;;;;;;;11.45;7.050001;;;;;;;5.56;74.24805;95940.96;;;;
2021/09/23 02:17:19;;;;;;;11.45;7.050001;;;;;;;5.56;74.24805;95940.96;;;;
2021/09/23 02:18:19;;;;;;;11.45;7.050001;;;;;;;5.56;74.24805;95940.96;;;;
2021/09/23 02:19:19;;;;;;;11.45;7.050001;;;;;;;5.56;74.24805;95940.96;;;;
2021/09/23 02:20:20;;;;;;;11.45;7.050001;;;;;;;5.56;74.24805;95940.96;;;;
2021/09/23 02:21:21;;;;;;;11.45;7.050001;;;;;;;5.56;74.24805;95940.96;;;;
2021/09/23 02:22:21;;;;;;;11.45;7.050001;;;;;;;5.56;74.24805;95940.96;;;;
2021/09/23 02:23:22;;;;;;;11.45;7.050001;;;;;;;5.56;74.24805;95940.96;;;;
2021/09/23 02:24:22;;;;;;;11.45;7.050001;;;;;;;5.56;74.24805;95940.96;;;;
2021/09/23 02:25:23;;;;;;;9.550001;6.649999;;;;;;;5.42;74.35156;95921.64;;;;
2021/09/23 02:26:23;;;;;;;9.550001;6.649999;;;;;;;5.42;74.35156;95921.64;;;;
2021/09/23 02:27:23;;;;;;;9.550001;6.649999;;;;;;;5.42;74.35156;95921.64;;;;
2021/09/23 02:28:24;;;;;;;9.550001;6.649999;;;;;;;5.42;74.35156;95921.64;;;;
2021/09/23 02:29:24;;;;;;;9.550001;6.649999;;;;;;;5.42;74.35156;95921.64;;;;
2021/09/23 02:30:25;;;;;;;9.550001;6.649999;;;;;;;5.42;74.35156;95921.64;;;;
2021/09/23 02:31:26;;;;;;;9.550001;6.649999;;;;;;;5.42;74.35156;95921.64;;;;
2021/09/23 02:32:26;;;;;;;9.550001;6.649999;;;;;;;5.42;74.35156;95921.64;;;;
2021/09/23 02:33:27;;;;;;;9.550001;6.649999;;;;;;;5.42;74.35156;95921.64;;;;
2021/09/23 02:34:27;;;;;;;9.550001;6.649999;;;;;;;5.42;74.35156;95921.64;;;;
2021/09/23 02:35:28;;;;;;;9.550001;6.649999;;;;;;;5.42;74.35156;95921.64;;;;
2021/09/23 02:36:28;;;;;;;9.900001;6.75;;;;;;;5.29;74.58496;95908.51;;;;
2021/09/23 02:37:29;;;;;;;9.900001;6.75;;;;;;;5.29;74.58496;95908.51;;;;
2021/09/23 02:38:29;;;;;;;9.900001;6.75;;;;;;;5.29;74.58496;95908.51;;;;
2021/09/23 02:39:30;;;;;;;9.900001;6.75;;;;;;;5.29;74.58496;95908.51;;;;
2021/09/23 02:40:31;;;;;;;9.900001;6.75;;;;;;;5.29;74.58496;95908.51;;;;
2021/09/23 02:41:32;;;;;;;9.900001;6.75;;;;;;;5.29;74.58496;95908.51;;;;
2021/09/23 02:42:32;;;;;;;9.900001;6.75;;;;;;;5.29;74.58496;95908.51;;;;
2021/09/23 02:43:33;;;;;;;9.900001;6.75;;;;;;;5.29;74.58496;95908.51;;;;
2021/09/23 02:44:34;;;;;;;9.900001;6.75;;;;;;;5.29;74.58496;95908.51;;;;
2021/09/23 02:45:34;;;;;;;9.900001;6.75;;;;;;;5.29;74.58496;95908.51;;;;
2021/09/23 02:46:35;;;;;;;9.900001;6.75;;;;;;;5.29;74.58496;95908.51;;;;
2021/09/23 02:47:35;;;;;;;9.9;6.299999;;;;;;;5.21;74.75879;95893.99;;;;
2021/09/23 02:48:36;;;;;;;9.9;6.299999;;;;;;;5.21;74.75879;95893.99;;;;
2021/09/23 02:49:36;;;;;;;9.9;6.299999;;;;;;;5.21;74.75879;95893.99;;;;
2021/09/23 02:50:37;;;;;;;9.9;6.299999;;;;;;;5.21;74.75879;95893.99;;;;
2021/09/23 02:51:38;;;;;;;9.9;6.299999;;;;;;;5.21;74.75879;95893.99;;;;
2021/09/23 02:52:38;;;;;;;9.9;6.299999;;;;;;;5.21;74.75879;95893.99;;;;
2021/09/23 02:53:39;;;;;;;9.9;6.299999;;;;;;;5.21;74.75879;95893.99;;;;
2021/09/23 02:54:40;;;;;;;9.9;6.299999;;;;;;;5.21;74.75879;95893.99;;;;
2021/09/23 02:55:40;;;;;;;9.9;6.299999;;;;;;;5.21;74.75879;95893.99;;;;
2021/09/23 02:56:40;;;;;;;9.9;6.299999;;;;;;;5.21;74.75879;95893.99;;;;
2021/09/23 02:57:41;;;;;;;9.800001;7.15;;;;;;;5.14;74.89453;95880.55;;;;
2021/09/23 02:58:41;;;;;;;9.800001;7.15;;;;;;;5.14;74.89453;95880.55;;;;
2021/09/23 02:59:42;;;;;;;9.800001;7.15;;;;;;;5.14;74.89453;95880.55;;;;
2021/09/23 03:00:43;;;;;;;9.800001;7.15;;;;;;;5.14;74.89453;95880.55;;;;
2021/09/23 03:01:43;;;;;;;9.800001;7.15;;;;;;;5.14;74.89453;95880.55;;;;
2021/09/23 03:02:44;;;;;;;9.800001;7.15;;;;;;;5.14;74.89453;95880.55;;;;
2021/09/23 03:03:44;;;;;;;9.800001;7.15;;;;;;;5.14;74.89453;95880.55;;;;
2021/09/23 03:04:45;;;;;;;9.800001;7.15;;;;;;;5.14;74.89453;95880.55;;;;
2021/09/23 03:05:46;;;;;;;9.800001;7.15;;;;;;;5.14;74.89453;95880.55;;;;
2021/09/23 03:06:46;;;;;;;9.800001;7.15;;;;;;;5.14;74.89453;95880.55;;;;
2021/09/23 03:07:47;;;;;;;9.800001;7.15;;;;;;;5.14;74.89453;95880.55;;;;
2021/09/23 03:08:47;;;;;;;10.6;7.299999;;;;;;;5.1;75.03516;95882.84;;;;
2021/09/23 03:09:48;;;;;;;10.6;7.299999;;;;;;;5.1;75.03516;95882.84;;;;
2021/09/23 03:10:48;;;;;;;10.6;7.299999;;;;;;;5.1;75.03516;95882.84;;;;
2021/09/23 03:11:49;;;;;;;10.6;7.299999;;;;;;;5.1;75.03516;95882.84;;;;
2021/09/23 03:12:49;;;;;;;10.6;7.299999;;;;;;;5.1;75.03516;95882.84;;;;
2021/09/23 03:13:50;;;;;;;10.6;7.299999;;;;;;;5.1;75.03516;95882.84;;;;
2021/09/23 03:14:50;;;;;;;10.6;7.299999;;;;;;;5.1;75.03516;95882.84;;;;
2021/09/23 03:15:51;;;;;;;10.6;7.299999;;;;;;;5.1;75.03516;95882.84;;;;
2021/09/23 03:16:51;;;;;;;10.6;7.299999;;;;;;;5.1;75.03516;95882.84;;;;
2021/09/23 03:17:52;;;;;;;10.6;7.299999;;;;;;;5.1;75.03516;95882.84;;;;
2021/09/23 03:18:53;;;;;;;10.6;7.299999;;;;;;;5.1;75.03516;95882.84;;;;
2021/09/23 03:19:53;;;;;;;10.6;7.299999;;;;;;;5.1;75.03516;95882.84;;;;
2021/09/23 03:20:54;;;;;;;10.6;7.299999;;;;;;;5.1;75.03516;95882.84;;;;
2021/09/23 03:21:55;;;;;;;10.6;7.299999;;;;;;;5.1;75.03516;95882.84;;;;
2021/09/23 03:22:55;;;;;;;10.6;7.299999;;;;;;;5.1;75.03516;95882.84;;;;
2021/09/23 03:23:57;;;;;;;10.6;7.299999;;;;;;;5.1;75.03516;95882.84;;;;
2021/09/23 03:24:57;;;;;;;10.6;7.299999;;;;;;;5.1;75.03516;95882.84;;;;
2021/09/23 03:25:58;;;;;;;10.6;7.299999;;;;;;;5.1;75.03516;95882.84;;;;
2021/09/23 03:26:58;;;;;;;10.6;7.299999;;;;;;;5.1;75.03516;95882.84;;;;
2021/09/23 03:27:59;;;;;;;10.6;7.299999;;;;;;;5.1;75.03516;95882.84;;;;
2021/09/23 03:28:59;;;;;;;10.6;7.299999;;;;;;;5.1;75.03516;95882.84;;;;
2021/09/23 03:30:00;;;;;;;9.85;6.95;;;;;;;5.04;75.28027;95853.23;;;;
2021/09/23 03:31:00;;;;;;;9.85;6.95;;;;;;;5.04;75.28027;95853.23;;;;
2021/09/23 03:32:01;;;;;;;9.85;6.95;;;;;;;5.04;75.28027;95853.23;;;;
2021/09/23 03:33:03;;;;;;;9.85;6.95;;;;;;;5.04;75.28027;95853.23;;;;
2021/09/23 03:34:06;;;;;;;9.85;6.95;;;;;;;5.04;75.28027;95853.23;;;;
2021/09/23 03:35:06;;;;;;;9.85;6.95;;;;;;;5.04;75.28027;95853.23;;;;
2021/09/23 03:36:08;;;;;;;9.85;6.95;;;;;;;5.04;75.28027;95853.23;;;;
2021/09/23 03:37:08;;;;;;;9.85;6.95;;;;;;;5.04;75.28027;95853.23;;;;
2021/09/23 03:38:09;;;;;;;9.85;6.95;;;;;;;5.04;75.28027;95853.23;;;;
2021/09/23 03:39:09;;;;;;;9.85;6.95;;;;;;;5.04;75.28027;95853.23;;;;
2021/09/23 03:40:10;;;;;;;9;6.45;;;;;;;5.01;75.4209;95845.59;;;;
2021/09/23 03:41:11;;;;;;;9;6.45;;;;;;;5.01;75.4209;95845.59;;;;
2021/09/23 03:42:11;;;;;;;9;6.45;;;;;;;5.01;75.4209;95845.59;;;;
2021/09/23 03:43:12;;;;;;;9;6.45;;;;;;;5.01;75.4209;95845.59;;;;
2021/09/23 03:44:12;;;;;;;9;6.45;;;;;;;5.01;75.4209;95845.59;;;;
2021/09/23 03:45:13;;;;;;;9;6.45;;;;;;;5.01;75.4209;95845.59;;;;
2021/09/23 03:46:14;;;;;;;9;6.45;;;;;;;5.01;75.4209;95845.59;;;;
2021/09/23 03:47:14;;;;;;;9;6.45;;;;;;;5.01;75.4209;95845.59;;;;
2021/09/23 03:48:15;;;;;;;9;6.45;;;;;;;5.01;75.4209;95845.59;;;;
2021/09/23 03:49:16;;;;;;;9;6.45;;;;;;;5.01;75.4209;95845.59;;;;
2021/09/23 03:50:16;;;;;;;9;6.45;;;;;;;5.01;75.4209;95845.59;;;;
2021/09/23 03:51:17;;;;;;;9.949999;6.6;;;;;;;5;75.60938;95844.86;;;;
2021/09/23 03:52:18;;;;;;;9.949999;6.6;;;;;;;5;75.60938;95844.86;;;;
2021/09/23 03:53:18;;;;;;;9.949999;6.6;;;;;;;5;75.60938;95844.86;;;;
2021/09/23 03:54:19;;;;;;;9.949999;6.6;;;;;;;5;75.60938;95844.86;;;;
2021/09/23 03:55:19;;;;;;;9.949999;6.6;;;;;;;5;75.60938;95844.86;;;;
2021/09/23 03:56:20;;;;;;;9.949999;6.6;;;;;;;5;75.60938;95844.86;;;;
2021/09/23 03:57:21;;;;;;;9.949999;6.6;;;;;;;5;75.60938;95844.86;;;;
2021/09/23 03:58:21;;;;;;;9.949999;6.6;;;;;;;5;75.60938;95844.86;;;;
2021/09/23 03:59:22;;;;;;;9.949999;6.6;;;;;;;5;75.60938;95844.86;;;;
2021/09/23 04:00:23;;;;;;;9.949999;6.6;;;;;;;5;75.60938;95844.86;;;;
2021/09/23 04:01:24;;;;;;;9.5;6.000001;;;;;;;4.95;75.72754;95827.59;;;;
2021/09/23 04:02:24;;;;;;;9.5;6.000001;;;;;;;4.95;75.72754;95827.59;;;;
2021/09/23 04:03:25;;;;;;;9.5;6.000001;;;;;;;4.95;75.72754;95827.59;;;;
2021/09/23 04:04:25;;;;;;;9.5;6.000001;;;;;;;4.95;75.72754;95827.59;;;;
2021/09/23 04:05:26;;;;;;;9.5;6.000001;;;;;;;4.95;75.72754;95827.59;;;;
2021/09/23 04:06:26;;;;;;;9.5;6.000001;;;;;;;4.95;75.72754;95827.59;;;;
2021/09/23 04:07:27;;;;;;;9.5;6.000001;;;;;;;4.95;75.72754;95827.59;;;;
2021/09/23 04:08:27;;;;;;;9.5;6.000001;;;;;;;4.95;75.72754;95827.59;;;;
2021/09/23 04:09:28;;;;;;;9.5;6.000001;;;;;;;4.95;75.72754;95827.59;;;;
2021/09/23 04:10:28;;;;;;;9.5;6.000001;;;;;;;4.95;75.72754;95827.59;;;;
2021/09/23 04:11:29;;;;;;;9.5;6.000001;;;;;;;4.95;75.72754;95827.59;;;;
2021/09/23 04:12:29;;;;;;;8.4;6.099999;;;;;;;4.89;75.85352;95814.15;;;;
2021/09/23 04:13:30;;;;;;;8.4;6.099999;;;;;;;4.89;75.85352;95814.15;;;;
2021/09/23 04:14:30;;;;;;;8.4;6.099999;;;;;;;4.89;75.85352;95814.15;;;;
2021/09/23 04:15:31;;;;;;;8.4;6.099999;;;;;;;4.89;75.85352;95814.15;;;;
2021/09/23 04:16:32;;;;;;;8.4;6.099999;;;;;;;4.89;75.85352;95814.15;;;;
2021/09/23 04:17:33;;;;;;;8.4;6.099999;;;;;;;4.89;75.85352;95814.15;;;;
2021/09/23 04:18:34;;;;;;;8.4;6.099999;;;;;;;4.89;75.85352;95814.15;;;;
2021/09/23 04:19:34;;;;;;;8.4;6.099999;;;;;;;4.89;75.85352;95814.15;;;;
2021/09/23 04:20:35;;;;;;;8.4;6.099999;;;;;;;4.89;75.85352;95814.15;;;;
2021/09/23 04:21:35;;;;;;;8.4;6.099999;;;;;;;4.89;75.85352;95814.15;;;;
2021/09/23 04:22:36;;;;;;;8.4;6.099999;;;;;;;4.89;75.85352;95814.15;;;;
2021/09/23 04:23:36;;;;;;;9;5.9;;;;;;;4.83;75.96875;95808.2;;;;
2021/09/23 04:24:37;;;;;;;9;5.9;;;;;;;4.83;75.96875;95808.2;;;;
2021/09/23 04:25:38;;;;;;;9;5.9;;;;;;;4.83;75.96875;95808.2;;;;
2021/09/23 04:26:38;;;;;;;9;5.9;;;;;;;4.83;75.96875;95808.2;;;;
2021/09/23 04:27:39;;;;;;;9;5.9;;;;;;;4.83;75.96875;95808.2;;;;
2021/09/23 04:28:40;;;;;;;9;5.9;;;;;;;4.83;75.96875;95808.2;;;;
2021/09/23 04:29:43;;;;;;;9;5.9;;;;;;;4.83;75.96875;95808.2;;;;
2021/09/23 04:30:44;;;;;;;9;5.9;;;;;;;4.83;75.96875;95808.2;;;;
2021/09/23 04:31:44;;;;;;;9;5.9;;;;;;;4.83;75.96875;95808.2;;;;
2021/09/23 04:32:45;;;;;;;9;5.9;;;;;;;4.83;75.96875;95808.2;;;;
2021/09/23 04:33:45;;;;;;;9.250001;6.299999;;;;;;;4.77;76.1084;95798.66;;;;
2021/09/23 04:34:46;;;;;;;9.250001;6.299999;;;;;;;4.77;76.1084;95798.66;;;;
2021/09/23 04:35:49;;;;;;;9.250001;6.299999;;;;;;;4.77;76.1084;95798.66;;;;
2021/09/23 04:36:50;;;;;;;9.250001;6.299999;;;;;;;4.77;76.1084;95798.66;;;;
2021/09/23 04:37:50;;;;;;;9.250001;6.299999;;;;;;;4.77;76.1084;95798.66;;;;
2021/09/23 04:38:51;;;;;;;9.250001;6.299999;;;;;;;4.77;76.1084;95798.66;;;;
2021/09/23 04:39:51;;;;;;;9.250001;6.299999;;;;;;;4.77;76.1084;95798.66;;;;
2021/09/23 04:40:53;;;;;;;9.250001;6.299999;;;;;;;4.77;76.1084;95798.66;;;;
2021/09/23 04:41:54;;;;;;;9.250001;6.299999;;;;;;;4.77;76.1084;95798.66;;;;
2021/09/23 04:42:54;;;;;;;9.250001;6.299999;;;;;;;4.77;76.1084;95798.66;;;;
2021/09/23 04:43:55;;;;;;;9.250001;6.299999;;;;;;;4.77;76.1084;95798.66;;;;
2021/09/23 04:44:55;;;;;;;8.55;6.2;;;;;;;4.76;76.26465;95786.24;;;;
2021/09/23 04:45:56;;;;;;;8.55;6.2;;;;;;;4.76;76.26465;95786.24;;;;
2021/09/23 04:46:57;;;;;;;8.55;6.2;;;;;;;4.76;76.26465;95786.24;;;;
2021/09/23 04:47:57;;;;;;;8.55;6.2;;;;;;;4.76;76.26465;95786.24;;;;
2021/09/23 04:48:58;;;;;;;8.55;6.2;;;;;;;4.76;76.26465;95786.24;;;;
2021/09/23 04:49:59;;;;;;;8.55;6.2;;;;;;;4.76;76.26465;95786.24;;;;
2021/09/23 04:50:59;;;;;;;8.55;6.2;;;;;;;4.76;76.26465;95786.24;;;;
2021/09/23 04:52:00;;;;;;;8.55;6.2;;;;;;;4.76;76.26465;95786.24;;;;
2021/09/23 04:53:01;;;;;;;8.55;6.2;;;;;;;4.76;76.26465;95786.24;;;;
2021/09/23 04:54:03;;;;;;;8.55;6.2;;;;;;;4.76;76.26465;95786.24;;;;
2021/09/23 04:55:04;;;;;;;9.549999;7.099999;;;;;;;4.76;76.36816;95772.96;;;;
2021/09/23 04:56:05;;;;;;;9.549999;7.099999;;;;;;;4.76;76.36816;95772.96;;;;
2021/09/23 04:57:05;;;;;;;9.549999;7.099999;;;;;;;4.76;76.36816;95772.96;;;;
2021/09/23 04:58:06;;;;;;;9.549999;7.099999;;;;;;;4.76;76.36816;95772.96;;;;
2021/09/23 04:59:06;;;;;;;9.549999;7.099999;;;;;;;4.76;76.36816;95772.96;;;;
2021/09/23 05:00:07;;;;;;;9.549999;7.099999;;;;;;;4.76;76.36816;95772.96;;;;
2021/09/23 05:01:09;;;;;;;9.549999;7.099999;;;;;;;4.76;76.36816;95772.96;;;;
2021/09/23 05:02:09;;;;;;;9.549999;7.099999;;;;;;;4.76;76.36816;95772.96;;;;
2021/09/23 05:03:10;;;;;;;9.549999;7.099999;;;;;;;4.76;76.36816;95772.96;;;;
2021/09/23 05:04:11;;;;;;;9.549999;7.099999;;;;;;;4.76;76.36816;95772.96;;;;
2021/09/23 05:05:11;;;;;;;9.549999;7.099999;;;;;;;4.76;76.36816;95772.96;;;;
2021/09/23 05:06:12;;;;;;;10.3;6.599999;;;;;;;4.77;76.47754;95758.47;;;;
2021/09/23 05:07:13;;;;;;;10.3;6.599999;;;;;;;4.77;76.47754;95758.47;;;;
2021/09/23 05:08:13;;;;;;;10.3;6.599999;;;;;;;4.77;76.47754;95758.47;;;;
2021/09/23 05:09:13;;;;;;;10.3;6.599999;;;;;;;4.77;76.47754;95758.47;;;;
2021/09/23 05:10:14;;;;;;;10.3;6.599999;;;;;;;4.77;76.47754;95758.47;;;;
2021/09/23 05:11:15;;;;;;;10.3;6.599999;;;;;;;4.77;76.47754;95758.47;;;;
2021/09/23 05:12:15;;;;;;;10.3;6.599999;;;;;;;4.77;76.47754;95758.47;;;;
2021/09/23 05:13:15;;;;;;;10.3;6.599999;;;;;;;4.77;76.47754;95758.47;;;;
2021/09/23 05:14:17;;;;;;;10.3;6.599999;;;;;;;4.77;76.47754;95758.47;;;;
2021/09/23 05:15:18;;;;;;;10.3;6.599999;;;;;;;4.77;76.47754;95758.47;;;;
2021/09/23 05:16:18;;;;;;;10.7;7.05;;;;;;;4.83;76.58105;95744.01;;;;
2021/09/23 05:17:19;;;;;;;10.7;7.05;;;;;;;4.83;76.58105;95744.01;;;;
2021/09/23 05:18:19;;;;;;;10.7;7.05;;;;;;;4.83;76.58105;95744.01;;;;
2021/09/23 05:19:20;;;;;;;10.7;7.05;;;;;;;4.83;76.58105;95744.01;;;;
2021/09/23 05:20:20;;;;;;;10.7;7.05;;;;;;;4.83;76.58105;95744.01;;;;
2021/09/23 05:21:21;;;;;;;10.7;7.05;;;;;;;4.83;76.58105;95744.01;;;;
2021/09/23 05:22:26;;;;;;;10.7;7.05;;;;;;;4.83;76.58105;95744.01;;;;
2021/09/23 05:23:27;;;;;;;10.7;7.05;;;;;;;4.83;76.58105;95744.01;;;;
2021/09/23 05:24:27;;;;;;;10.7;7.05;;;;;;;4.83;76.58105;95744.01;;;;
2021/09/23 05:25:28;;;;;;;10.7;7.05;;;;;;;4.83;76.58105;95744.01;;;;
2021/09/23 05:26:29;;;;;;;10.7;7.05;;;;;;;4.83;76.58105;95744.01;;;;
2021/09/23 05:27:29;;;;;;;9.6;6.849999;;;;;;;5.02;76.58398;95738.05;;;;
2021/09/23 05:28:30;;;;;;;9.6;6.849999;;;;;;;5.02;76.58398;95738.05;;;;
2021/09/23 05:29:30;;;;;;;9.6;6.849999;;;;;;;5.02;76.58398;95738.05;;;;
2021/09/23 05:30:31;;;;;;;9.6;6.849999;;;;;;;5.02;76.58398;95738.05;;;;
2021/09/23 05:31:31;;;;;;;9.6;6.849999;;;;;;;5.02;76.58398;95738.05;;;;
2021/09/23 05:32:32;;;;;;;9.6;6.849999;;;;;;;5.02;76.58398;95738.05;;;;
2021/09/23 05:33:33;;;;;;;9.6;6.849999;;;;;;;5.02;76.58398;95738.05;;;;
2021/09/23 05:34:33;;;;;;;9.6;6.849999;;;;;;;5.02;76.58398;95738.05;;;;
2021/09/23 05:35:34;;;;;;;9.6;6.849999;;;;;;;5.02;76.58398;95738.05;;;;
2021/09/23 05:36:35;;;;;;;9.6;6.849999;;;;;;;5.02;76.58398;95738.05;;;;